Terminal Aerodrome Forecast
Issued by NWS

Home | Current Version | Previous Version | Text Only | Print | Product List | Glossary On
Versions: 1 2 3 4 5 6 7 8 9 10 11 12 13 14 15 16 17 18
000
FTAK31 PANC 280127 AAA
TAFADU
TAF AMD
PADU 280127Z 2801/2824 VRB05KT P6SM VCSH SCT006 BKN012
      TEMPO 2801/2805 3SM -RA BR BKN006
     FM280800 13010KT P6SM -RA SCT008 BKN015
     FM281200 16008KT P6SM BKN020=

USA.gov is the U.S. government's official web portal to all federal, state and local government web resources and services.